Time;durP1;ratioP1;P1;durP2;ratioP2;P2;SDS_P1;SDS_P2;PMS_P1;PMS_P2;Temp;Humidity;BMP_temperature;BMP_pressure;BME280_temperature;BME280_humidity;BME280_pressure;Samples;Min_cycle;Max_cycle;Signal;HPM_P1;HPM_P2
2022/09/04 00:00:07;;;;;;;7.35;5.25;;;;;;;9.70;70.37;102176.98;1694129;84;21077;-83
2022/09/04 00:02:54;;;;;;;9.03;5.08;;;;;;;9.68;70.45;102179.91;1680028;83;21142;-83
2022/09/04 00:05:46;;;;;;;8.35;4.97;;;;;;;9.64;70.51;102182.33;1678659;85;21125;-85
2022/09/04 00:08:27;;;;;;;9.55;4.60;;;;;;;9.61;70.59;102178.20;1678658;85;21066;-85
2022/09/04 00:11:19;;;;;;;8.55;4.72;;;;;;;9.60;70.72;102177.31;1678638;84;21157;-85
2022/09/04 00:14:06;;;;;;;6.95;4.55;;;;;;;9.59;70.79;102184.73;1679010;85;22082;-83
2022/09/04 00:16:49;;;;;;;8.48;4.20;;;;;;;9.59;70.90;102175.91;1678926;83;21067;-84
2022/09/04 00:19:42;;;;;;;6.53;3.75;;;;;;;9.60;70.91;102180.36;1678592;83;21110;-84
2022/09/04 00:22:33;;;;;;;9.25;4.20;;;;;;;9.60;71.17;102180.36;1679386;83;21700;-84
2022/09/04 00:25:11;;;;;;;7.65;4.20;;;;;;;9.61;71.10;102183.08;1678986;83;21185;-84
2022/09/04 00:27:44;;;;;;;6.87;4.08;;;;;;;9.63;71.20;102182.74;1679237;84;21145;-84
2022/09/04 00:30:19;;;;;;;7.78;4.95;;;;;;;9.63;71.20;102184.45;1679775;85;21766;-88
2022/09/04 00:33:03;;;;;;;8.15;4.10;;;;;;;9.62;71.16;102183.97;1679627;85;21130;-89
2022/09/04 00:35:35;;;;;;;;;;;;;;;9.62;71.19;102187.92;1682174;85;21835;-84
2022/09/04 00:38:41;;;;;;;6.73;4.17;;;;;;;9.59;71.27;102188.67;1649816;85;20499;-84
2022/09/04 00:41:29;;;;;;;8.35;4.42;;;;;;;9.57;71.21;102198.59;1679156;85;21074;-84
2022/09/04 00:44:29;;;;;;;4.40;3.52;;;;;;;9.51;71.28;102190.88;1659834;85;21933;-84
2022/09/04 00:47:38;;;;;;;8.18;3.47;;;;;;;9.50;71.30;102190.82;1666447;84;21085;-85
2022/09/04 00:50:46;;;;;;;5.70;3.67;;;;;;;9.45;71.37;102194.92;1694101;84;21055;-84
2022/09/04 00:53:47;;;;;;;6.90;3.85;;;;;;;9.41;71.42;102196.91;1681698;84;21070;-84
2022/09/04 00:57:05;;;;;;;8.10;3.92;;;;;;;9.33;71.50;102190.83;1692998;84;21084;-84
2022/09/04 01:00:09;;;;;;;4.58;3.50;;;;;;;9.29;71.64;102191.48;1693087;83;21707;-85
2022/09/04 01:02:47;;;;;;;8.13;4.25;;;;;;;9.24;71.83;102193.38;1694099;84;21650;-86
2022/09/04 01:05:36;;;;;;;5.30;3.80;;;;;;;9.19;71.94;102193.11;1702764;83;21070;-84
2022/09/04 01:09:00;;;;;;;5.25;3.50;;;;;;;9.18;72.08;102187.38;1644398;85;21067;-86
2022/09/04 01:11:44;;;;;;;5.37;3.40;;;;;;;9.19;72.13;102185.23;1651656;86;21073;-87
2022/09/04 01:14:41;;;;;;;5.10;3.98;;;;;;;9.18;72.26;102189.08;1657692;86;22810;-85
2022/09/04 01:17:19;;;;;;;6.83;4.58;;;;;;;9.17;72.35;102182.05;1740220;80;21029;-85
2022/09/04 01:20:09;;;;;;;5.03;4.03;;;;;;;9.15;72.36;102184.58;1708460;82;21113;-86
2022/09/04 01:23:11;;;;;;;6.65;4.40;;;;;;;9.13;72.46;102183.59;1728026;82;21033;-88
2022/09/04 01:26:07;;;;;;;6.72;3.77;;;;;;;9.12;72.53;102186.64;1715742;82;21295;-85
2022/09/04 01:28:57;;;;;;;5.72;3.70;;;;;;;9.11;72.60;102185.24;1682937;83;21808;-84
2022/09/04 01:32:18;;;;;;;4.25;3.55;;;;;;;9.10;72.63;102193.92;1685703;84;21450;-84
2022/09/04 01:34:53;;;;;;;6.67;3.75;;;;;;;9.07;72.62;102189.42;1685056;84;21114;-84
2022/09/04 01:37:41;;;;;;;6.70;3.60;;;;;;;9.06;72.68;102202.05;1649776;84;21200;-83
2022/09/04 01:40:48;;;;;;;7.00;3.80;;;;;;;9.04;72.76;102196.23;1678528;83;21182;-84
2022/09/04 01:43:21;;;;;;;4.87;3.22;;;;;;;9.02;72.83;102192.20;1684116;84;23019;-84
2022/09/04 01:46:19;;;;;;;5.67;3.60;;;;;;;8.99;72.81;102194.68;1691392;83;21401;-86
2022/09/04 01:49:35;;;;;;;3.85;2.72;;;;;;;8.97;72.91;102201.96;1680268;83;21079;-85
2022/09/04 01:52:39;;;;;;;4.60;3.02;;;;;;;8.94;72.97;102193.10;1688597;83;21606;-86
2022/09/04 01:55:27;;;;;;;6.37;3.67;;;;;;;8.93;73.07;102200.50;1688577;83;21652;-89
2022/09/04 01:58:07;;;;;;;6.28;3.52;;;;;;;8.92;73.09;102192.53;1676008;83;21765;-83
2022/09/04 02:00:43;;;;;;;4.87;3.50;;;;;;;8.89;73.15;102198.50;1687072;84;21655;-84
2022/09/04 02:03:27;;;;;;;5.47;3.50;;;;;;;8.88;73.18;102201.07;1687219;84;21107;-83
2022/09/04 02:06:05;;;;;;;4.92;3.30;;;;;;;8.84;73.18;102203.94;1687857;83;21111;-84
2022/09/04 02:09:00;;;;;;;5.70;3.35;;;;;;;8.82;73.20;102200.70;1688145;83;21107;-83
2022/09/04 02:11:30;;;;;;;5.87;3.40;;;;;;;8.80;73.27;102197.09;1688193;83;21783;-83
2022/09/04 02:14:26;;;;;;;5.25;3.42;;;;;;;8.77;73.31;102194.32;1687971;84;21096;-83
2022/09/04 02:17:17;;;;;;;3.58;3.02;;;;;;;8.73;73.35;102191.52;1688275;84;21123;-88
2022/09/04 02:20:06;;;;;;;8.03;3.70;;;;;;;8.71;73.37;102206.70;1677183;83;21071;-84
2022/09/04 02:22:44;;;;;;;5.83;3.33;;;;;;;8.67;73.46;102202.99;1696456;83;21719;-86
2022/09/04 02:25:31;;;;;;;4.75;2.80;;;;;;;8.64;73.58;102196.25;1689603;81;21775;-83
2022/09/04 02:28:13;;;;;;;4.17;2.90;;;;;;;8.64;73.69;102194.94;1736810;82;21038;-87
2022/09/04 02:30:57;;;;;;;3.77;2.98;;;;;;;8.64;73.74;102193.63;1723336;82;21084;-89
2022/09/04 02:33:38;;;;;;;5.80;3.17;;;;;;;8.65;73.73;102194.13;1740320;82;21662;-88
2022/09/04 02:36:21;;;;;;;3.52;2.83;;;;;;;8.62;73.71;102190.02;1717403;82;21065;-85
2022/09/04 02:39:15;;;;;;;3.30;2.60;;;;;;;8.61;73.76;102186.88;1740449;82;27056;-85
2022/09/04 02:42:07;;;;;;;4.67;3.35;;;;;;;8.60;73.84;102187.72;1739990;82;21555;-83
2022/09/04 02:45:10;;;;;;;5.83;3.00;;;;;;;8.59;73.94;102191.14;1740905;82;21081;-83
2022/09/04 02:47:51;;;;;;;6.55;3.60;;;;;;;8.56;73.94;102189.26;1739696;82;21045;-83
2022/09/04 02:50:57;;;;;;;4.58;2.90;;;;;;;8.53;74.04;102187.77;1742147;81;21072;-83
2022/09/04 02:53:55;;;;;;;6.35;2.67;;;;;;;8.52;74.05;102192.92;1740431;82;22532;-86
2022/09/04 02:56:39;;;;;;;3.00;2.45;;;;;;;8.51;74.16;102189.40;1740527;81;21074;-83
2022/09/04 02:59:38;;;;;;;3.95;2.77;;;;;;;8.50;74.19;102189.31;1719175;82;21586;-86
2022/09/04 03:02:09;;;;;;;5.22;3.27;;;;;;;8.48;74.23;102192.26;1740862;82;21350;-86
2022/09/04 03:04:48;;;;;;;5.60;2.55;;;;;;;8.47;74.29;102185.22;1740970;82;21058;-87
2022/09/04 03:07:40;;;;;;;5.15;2.75;;;;;;;8.47;74.33;102190.47;1743031;82;21756;-86
2022/09/04 03:10:15;;;;;;;5.83;2.67;;;;;;;8.47;74.39;102190.47;1741052;82;21094;-86
2022/09/04 03:12:59;;;;;;;3.22;2.90;;;;;;;8.46;74.38;102192.58;1741001;82;21030;-89
2022/09/04 03:15:40;;;;;;;2.92;2.65;;;;;;;8.43;74.33;102189.77;1723972;82;21144;-89
2022/09/04 03:18:24;;;;;;;5.62;2.77;;;;;;;8.41;74.36;102197.55;1702660;82;21488;-87
2022/09/04 03:21:19;;;;;;;4.25;2.55;;;;;;;8.37;74.41;102192.53;1740663;82;22694;-87
2022/09/04 03:23:50;;;;;;;4.83;2.80;;;;;;;8.37;74.48;102198.16;1707944;83;21101;-89
2022/09/04 03:26:33;;;;;;;6.40;2.77;;;;;;;8.35;74.52;102195.86;1724187;81;21062;-83
2022/09/04 03:29:29;;;;;;;4.10;2.67;;;;;;;8.33;74.56;102193.18;1718056;82;21603;-85
2022/09/04 03:32:22;;;;;;;7.10;3.05;;;;;;;8.32;74.61;102196.61;1731983;82;21086;-83
2022/09/04 03:34:59;;;;;;;2.95;2.60;;;;;;;8.34;74.69;102196.70;1739946;82;23123;-83
2022/09/04 03:37:57;;;;;;;3.83;2.75;;;;;;;8.33;74.65;102198.42;1716125;82;21090;-83
2022/09/04 03:40:54;;;;;;;6.83;2.95;;;;;;;8.32;74.66;102197.92;1723614;82;21138;-83
2022/09/04 03:44:00;;;;;;;4.15;2.65;;;;;;;8.31;74.74;102200.03;1733527;82;21093;-83
2022/09/04 03:46:57;;;;;;;6.33;2.45;;;;;;;8.32;74.82;102204.47;1729916;82;21053;-83
2022/09/04 03:49:52;;;;;;;3.65;2.65;;;;;;;8.32;74.81;102202.27;1721061;82;21828;-83
2022/09/04 03:52:35;;;;;;;4.58;2.52;;;;;;;8.30;74.79;102210.05;1733633;82;21092;-83
2022/09/04 03:55:24;;;;;;;3.70;2.90;;;;;;;8.30;74.87;102207.84;1711550;83;21990;-86
2022/09/04 03:58:23;;;;;;;3.02;2.35;;;;;;;8.31;74.94;102217.08;1705744;82;21054;-86
2022/09/04 04:01:16;;;;;;;3.83;2.20;;;;;;;8.33;74.94;102217.17;1740018;82;21086;-87
2022/09/04 04:04:12;;;;;;;4.65;2.17;;;;;;;8.37;75.12;102218.77;1717522;82;22615;-84
2022/09/04 04:07:07;;;;;;;4.22;2.52;;;;;;;8.60;75.69;102211.75;1713084;82;21062;-88
2022/09/04 04:09:45;;;;;;;4.55;2.25;;;;;;;9.28;76.13;102214.62;1699593;82;21038;-87
2022/09/04 04:12:38;;;;;;;3.85;2.60;;;;;;;9.83;75.20;102217.94;1741155;82;21057;-88
2022/09/04 04:15:27;;;;;;;2.90;2.15;;;;;;;9.78;73.98;102218.52;1741372;82;21085;-87
2022/09/04 04:18:19;;;;;;;3.10;2.30;;;;;;;9.60;73.60;102220.69;1729248;82;22610;-86
2022/09/04 04:21:17;;;;;;;2.98;1.92;;;;;;;9.45;73.57;102229.09;1740450;81;21149;-86
2022/09/04 04:24:15;;;;;;;3.30;2.27;;;;;;;9.33;73.58;102227.61;1728269;82;21065;-86
2022/09/04 04:27:07;;;;;;;5.40;2.22;;;;;;;9.28;73.68;102231.70;1741076;81;21045;-89
2022/09/04 04:29:58;;;;;;;7.30;2.20;;;;;;;9.25;73.68;102239.83;1740931;82;21034;-89
2022/09/04 04:32:51;;;;;;;3.00;2.20;;;;;;;9.24;73.77;102245.92;1741158;82;21865;-87
2022/09/04 04:36:01;;;;;;;4.42;1.98;;;;;;;9.55;74.63;102245.83;1711537;82;21090;-87
2022/09/04 04:38:46;;;;;;;7.00;1.92;;;;;;;11.45;76.78;102238.52;1740749;82;21086;-83
2022/09/04 04:41:28;;;;;;;5.53;1.98;;;;;;;13.80;75.03;102234.38;1738481;82;21080;-83
2022/09/04 04:44:17;;;;;;;4.45;1.62;;;;;;;15.41;72.82;102229.41;1717201;82;21117;-83
2022/09/04 04:47:02;;;;;;;3.75;1.80;;;;;;;16.95;70.85;102232.48;1711045;83;21767;-84
2022/09/04 04:49:58;;;;;;;3.10;1.60;;;;;;;18.19;68.86;102231.00;1721728;82;21100;-87
2022/09/04 04:52:48;;;;;;;4.50;1.55;;;;;;;19.22;67.03;102228.57;1717383;82;22366;-86
2022/09/04 04:55:40;;;;;;;2.72;1.65;;;;;;;20.32;64.90;102229.74;1733588;82;21013;-85
2022/09/04 04:58:37;;;;;;;1.77;1.40;;;;;;;21.13;63.36;102233.42;1719124;82;21104;-87
2022/09/04 05:01:42;;;;;;;5.22;1.30;;;;;;;22.12;61.67;102233.29;1729925;82;23127;-87
2022/09/04 05:04:44;;;;;;;3.12;1.17;;;;;;;22.88;60.67;102230.11;1721701;82;21125;-89
2022/09/04 05:07:52;;;;;;;3.08;1.25;;;;;;;23.02;57.97;102230.09;1638508;85;21127;-86
2022/09/04 05:10:42;;;;;;;3.33;1.50;;;;;;;22.17;55.71;102244.92;1619572;86;21682;-87
2022/09/04 05:13:28;;;;;;;6.75;1.27;;;;;;;20.97;54.61;102238.70;1648128;85;21574;-86
2022/09/04 05:16:46;;;;;;;2.02;1.10;;;;;;;19.83;54.61;102246.22;1544293;89;23813;-86
2022/09/04 05:19:36;;;;;;;;;;;;;;;18.99;54.86;102252.70;1617127;87;21161;-87
2022/09/04 05:22:30;;;;;;;3.02;1.20;;;;;;;18.22;54.87;102256.34;1575483;89;20244;-86
2022/09/04 05:25:14;;;;;;;3.27;1.40;;;;;;;17.65;55.46;102253.05;1535862;91;21187;-87
2022/09/04 05:28:18;;;;;;;;;;;;;;;17.17;55.69;102258.69;1556149;90;21065;-83
2022/09/04 05:31:01;;;;;;;2.33;1.35;;;;;;;16.91;55.91;102260.77;1606096;87;22065;-84
2022/09/04 05:33:59;;;;;;;1.90;1.20;;;;;;;16.58;56.24;102262.19;1603304;88;21462;-87
2022/09/04 05:36:36;;;;;;;2.20;1.15;;;;;;;16.36;56.50;102260.74;1613185;87;21879;-83
2022/09/04 05:39:23;;;;;;;4.50;1.30;;;;;;;16.12;56.49;102264.55;1612722;87;21759;-86
2022/09/04 05:42:10;;;;;;;3.42;1.20;;;;;;;15.90;56.90;102260.45;1599128;87;21112;-83
2022/09/04 05:45:11;;;;;;;2.45;1.32;;;;;;;15.68;56.92;102263.78;1618097;87;21790;-85
2022/09/04 05:48:16;;;;;;;1.65;1.20;;;;;;;15.52;57.18;102262.46;1589995;88;21093;-84
2022/09/04 05:51:15;;;;;;;3.73;1.10;;;;;;;15.35;57.52;102263.30;1596478;88;21146;-84
2022/09/04 05:53:59;;;;;;;3.72;1.20;;;;;;;15.19;57.70;102268.98;1564033;90;23119;-83
2022/09/04 05:57:09;;;;;;;2.47;1.10;;;;;;;15.04;57.73;102273.39;1583176;87;21133;-84
2022/09/04 05:59:47;;;;;;;2.22;1.10;;;;;;;14.89;57.79;102279.55;1634876;85;21802;-85
2022/09/04 06:02:54;;;;;;;1.47;1.12;;;;;;;14.66;58.01;102277.06;1643168;85;21165;-87
2022/09/04 06:05:44;;;;;;;4.00;1.10;;;;;;;14.54;58.14;102284.56;1644132;85;21121;-86
2022/09/04 06:08:57;;;;;;;2.20;1.05;;;;;;;14.43;58.20;102285.52;1638705;86;21117;-85
2022/09/04 06:12:15;;;;;;;2.62;1.20;;;;;;;14.39;58.34;102288.48;1646289;85;21165;-84
2022/09/04 06:14:59;;;;;;;3.45;1.17;;;;;;;14.34;58.46;102295.39;1645462;85;21707;-83
2022/09/04 06:18:05;;;;;;;2.10;1.20;;;;;;;14.25;58.60;102297.73;1655138;85;21693;-86
2022/09/04 06:20:56;;;;;;;5.58;1.30;;;;;;;14.22;58.84;102297.61;1657250;85;21074;-87
2022/09/04 06:24:18;;;;;;;3.17;1.35;;;;;;;14.09;58.94;102287.00;1650866;85;21617;-85
2022/09/04 06:27:25;;;;;;;3.95;1.45;;;;;;;14.15;58.99;102304.85;1636250;86;21159;-84
2022/09/04 06:30:11;;;;;;;1.52;1.10;;;;;;;14.13;59.33;102302.18;1665244;86;21837;-84
2022/09/04 06:33:13;;;;;;;3.20;1.32;;;;;;;14.14;59.13;102301.75;1640259;86;21072;-86
2022/09/04 06:36:24;;;;;;;1.70;1.25;;;;;;;14.17;59.29;102305.41;1657043;86;21091;-84
2022/09/04 06:39:35;;;;;;;4.83;1.60;;;;;;;14.19;59.31;102306.36;1667065;84;21061;-85
2022/09/04 06:42:28;;;;;;;3.05;1.30;;;;;;;14.23;59.36;102303.39;1662114;86;21097;-88
2022/09/04 06:45:25;;;;;;;3.15;1.27;;;;;;;14.29;59.46;102306.68;1673065;84;21814;-83
2022/09/04 06:48:01;;;;;;;1.98;0.90;;;;;;;14.34;59.41;102311.29;1682161;84;21308;-85
2022/09/04 06:51:20;;;;;;;1.25;1.10;;;;;;;14.39;59.08;102302.16;1662519;84;21057;-84
2022/09/04 06:54:16;;;;;;;4.30;1.00;;;;;;;14.45;58.99;102298.81;1694428;84;21069;-87
2022/09/04 06:57:15;;;;;;;3.00;1.10;;;;;;;14.54;58.71;102309.30;1669691;84;21105;-85
2022/09/04 07:00:00;;;;;;;2.33;0.80;;;;;;;14.62;58.28;102312.67;1675033;84;21799;-82
2022/09/04 07:03:03;;;;;;;1.95;1.00;;;;;;;14.68;58.03;102315.55;1684521;84;21093;-86
2022/09/04 07:06:18;;;;;;;1.98;0.82;;;;;;;14.77;57.71;102318.47;1677955;84;21073;-88
2022/09/04 07:09:16;;;;;;;2.55;0.60;;;;;;;14.84;57.40;102318.26;1646732;84;21057;-88
2022/09/04 07:12:36;;;;;;;2.65;0.75;;;;;;;14.93;57.17;102314.58;1668998;84;21137;-89
2022/09/04 07:15:33;;;;;;;1.72;1.00;;;;;;;15.00;57.09;102317.91;1659919;84;21863;-90
2022/09/04 07:18:09;;;;;;;2.12;0.70;;;;;;;15.08;56.93;102315.50;1667035;84;21163;-89
2022/09/04 07:21:06;;;;;;;2.08;0.85;;;;;;;15.15;56.78;102320.15;1683357;84;21149;-86
2022/09/04 07:23:53;;;;;;;0.80;0.80;;;;;;;15.23;56.66;102319.95;1668250;84;21089;-86
2022/09/04 07:26:27;;;;;;;1.85;0.80;;;;;;;15.33;56.71;102331.73;1676478;84;21069;-91
2022/09/04 07:29:14;;;;;;;1.10;0.88;;;;;;;15.45;56.29;102329.91;1695917;83;22611;-87
2022/09/04 07:32:03;;;;;;;1.50;1.25;;;;;;;15.53;56.07;102335.90;1660743;84;21481;-85
2022/09/04 07:35:09;;;;;;;2.22;0.80;;;;;;;15.63;55.54;102345.03;1673700;83;32887;-86
2022/09/04 07:37:59;;;;;;;1.62;0.62;;;;;;;15.72;55.31;102337.77;1649122;84;21121;-84
2022/09/04 07:40:46;;;;;;;1.55;0.90;;;;;;;15.81;54.81;102337.19;1644938;84;21270;-84
2022/09/04 07:43:19;;;;;;;3.50;0.82;;;;;;;15.90;54.64;102344.98;1671119;84;21862;-90
2022/09/04 07:45:50;;;;;;;5.97;0.80;;;;;;;15.98;53.90;102348.29;1671761;83;21150;-85
2022/09/04 07:48:37;;;;;;;0.70;0.60;;;;;;;15.99;53.59;102345.69;1678570;83;21138;-85
2022/09/04 07:51:12;;;;;;;1.37;0.80;;;;;;;16.06;53.41;102350.28;1660672;84;21094;-88
2022/09/04 07:54:18;;;;;;;2.05;0.60;;;;;;;16.12;53.24;102356.20;1672907;84;21599;-84
2022/09/04 07:57:37;;;;;;;2.50;0.80;;;;;;;16.18;53.10;102359.45;1680601;84;21773;-84
2022/09/04 08:00:21;;;;;;;4.47;0.70;;;;;;;16.27;52.86;102359.70;1681567;84;21101;-82
2022/09/04 08:03:01;;;;;;;2.77;0.80;;;;;;;16.31;52.62;102362.91;1677459;84;21132;-84
2022/09/04 08:05:39;;;;;;;1.80;0.90;;;;;;;16.34;52.40;102364.33;1668499;83;21197;-85
2022/09/04 08:08:45;;;;;;;1.12;0.60;;;;;;;16.39;52.27;102365.37;1660794;85;21122;-85
2022/09/04 08:11:41;;;;;;;1.55;0.88;;;;;;;16.45;51.67;102371.28;1664693;85;21780;-86
2022/09/04 08:14:36;;;;;;;1.90;0.60;;;;;;;16.45;51.26;102374.83;1724152;82;21054;-86
2022/09/04 08:17:29;;;;;;;2.67;0.78;;;;;;;16.47;50.96;102375.77;1717147;82;21079;-85
2022/09/04 08:20:44;;;;;;;1.27;0.70;;;;;;;16.48;50.82;102373.59;1728640;82;21116;-85
2022/09/04 08:23:54;;;;;;;0.95;0.60;;;;;;;16.46;50.62;102358.44;1734974;82;21091;-86
2022/09/04 08:26:54;;;;;;;2.35;0.80;;;;;;;16.62;50.41;102375.70;1729654;82;21760;-85
2022/09/04 08:29:45;;;;;;;0.93;0.70;;;;;;;16.65;50.08;102374.03;1727548;81;21212;-85
2022/09/04 08:32:25;;;;;;;1.12;0.60;;;;;;;16.68;49.86;102378.08;1706004;82;22006;-83
2022/09/04 08:35:33;;;;;;;1.42;0.68;;;;;;;16.75;49.55;102379.59;1727639;82;22058;-83
2022/09/04 08:38:05;;;;;;;1.57;0.72;;;;;;;16.82;49.32;102378.48;1720863;82;21617;-86
2022/09/04 08:41:13;;;;;;;0.72;0.40;;;;;;;16.94;49.15;102384.97;1722096;82;21899;-84
2022/09/04 08:44:25;;;;;;;0.50;0.50;;;;;;;17.01;48.64;102391.81;1720593;82;21144;-86
2022/09/04 08:47:35;;;;;;;0.72;0.37;;;;;;;17.08;47.99;102391.55;1725883;82;21065;-89
2022/09/04 08:50:14;;;;;;;1.17;0.90;;;;;;;17.10;47.39;102386.72;1717534;82;21085;-84
2022/09/04 08:53:26;;;;;;;2.62;0.80;;;;;;;17.16;47.07;102392.61;1725784;82;21080;-86
2022/09/04 08:56:35;;;;;;;3.08;0.62;;;;;;;17.16;46.89;102393.95;1713159;82;21883;-85
2022/09/04 08:59:43;;;;;;;1.60;0.60;;;;;;;17.14;46.84;102391.69;1720701;82;21132;-82
2022/09/04 09:02:53;;;;;;;1.65;0.85;;;;;;;17.18;46.27;102392.22;1719438;82;21120;-83
2022/09/04 09:06:00;;;;;;;2.77;0.82;;;;;;;17.22;46.13;102394.52;1725856;81;21073;-84
2022/09/04 09:08:48;;;;;;;0.90;0.50;;;;;;;17.27;45.85;102403.09;1710630;81;21050;-85
2022/09/04 09:12:07;;;;;;;0.55;0.50;;;;;;;17.31;45.65;102389.86;1728107;82;21759;-85
2022/09/04 09:15:07;;;;;;;1.30;0.60;;;;;;;17.33;45.49;102385.47;1718403;82;21145;-88
2022/09/04 09:17:42;;;;;;;0.37;0.37;;;;;;;17.38;45.40;102387.38;1720116;82;21058;-86
2022/09/04 09:20:31;;;;;;;3.52;0.50;;;;;;;17.45;45.45;102391.95;1703914;82;21077;-85
2022/09/04 09:23:23;;;;;;;1.50;0.72;;;;;;;17.50;45.43;102394.73;1711123;82;21074;-85
2022/09/04 09:25:55;;;;;;;2.70;0.72;;;;;;;17.57;45.19;102390.02;1715831;82;22602;-87
2022/09/04 09:29:05;;;;;;;0.80;0.65;;;;;;;17.62;45.21;102392.33;1723177;80;21083;-86
2022/09/04 09:32:01;;;;;;;1.22;0.80;;;;;;;17.66;44.87;102395.55;1706938;82;21097;-85
2022/09/04 09:35:10;;;;;;;0.50;0.50;;;;;;;17.70;44.71;102396.52;1728301;81;21558;-86
2022/09/04 09:38:07;;;;;;;23.07;11.28;;;;;;;17.75;44.51;102400.59;1703537;83;21106;-88
2022/09/04 09:40:59;;;;;;;14.68;6.08;;;;;;;17.76;44.38;102395.31;1689657;84;21925;-89
2022/09/04 09:43:55;;;;;;;2.92;1.70;;;;;;;17.77;44.01;102395.76;1692337;84;21069;-87
2022/09/04 09:46:47;;;;;;;1.17;0.93;;;;;;;17.81;44.07;102392.73;1665017;85;21632;-85
2022/09/04 09:49:45;;;;;;;5.10;0.80;;;;;;;17.86;44.00;102396.44;1676140;84;21094;-84
2022/09/04 09:52:43;;;;;;;1.02;0.62;;;;;;;17.97;43.90;102403.33;1682410;83;21090;-85
2022/09/04 09:55:46;;;;;;;1.12;0.70;;;;;;;17.99;43.36;102394.48;1678661;84;21093;-84
2022/09/04 09:58:44;;;;;;;0.68;0.60;;;;;;;17.98;43.28;102392.71;1655869;86;21074;-86
2022/09/04 10:01:31;;;;;;;1.40;0.68;;;;;;;18.00;42.98;102390.97;1661152;86;21110;-87
2022/09/04 10:04:10;;;;;;;1.42;0.90;;;;;;;18.02;42.82;102392.34;1670397;85;21155;-85
2022/09/04 10:07:22;;;;;;;3.65;1.35;;;;;;;18.12;42.91;102398.75;1708904;83;21036;-85
2022/09/04 10:10:24;;;;;;;0.93;0.80;;;;;;;18.25;42.79;102395.45;1709564;82;21715;-86
2022/09/04 10:13:28;;;;;;;1.57;0.60;;;;;;;18.37;42.67;102400.12;1711615;82;21036;-87
2022/09/04 10:16:51;;;;;;;0.82;0.65;;;;;;;18.37;42.42;102400.12;1705160;83;21109;-85
2022/09/04 10:19:45;;;;;;;1.45;0.50;;;;;;;18.40;42.53;102402.41;1723230;82;21091;-87
2022/09/04 10:22:26;;;;;;;6.58;1.67;;;;;;;18.50;42.29;102398.59;1712127;82;22134;-86
2022/09/04 10:25:27;;;;;;;9.45;2.45;;;;;;;18.51;42.15;102389.73;1716171;82;22578;-85
2022/09/04 10:28:29;;;;;;;4.55;1.30;;;;;;;18.60;42.43;102393.87;1716171;81;21072;-86
2022/09/04 10:31:37;;;;;;;2.12;0.98;;;;;;;18.77;42.48;102391.50;1735478;82;21058;-87
2022/09/04 10:34:59;;;;;;;4.97;0.62;;;;;;;18.84;41.98;102386.36;1712964;82;21112;-89
2022/09/04 10:41:24;;;;;;;0.95;0.70;;;;;;;19.03;42.32;102382.63;1675079;82;21756;-85
2022/09/04 10:44:31;;;;;;;3.85;0.60;;;;;;;19.08;42.13;102378.27;1726410;82;21033;-85
2022/09/04 10:50:45;;;;;;;3.40;0.88;;;;;;;19.03;42.18;102381.30;1693922;83;21728;-88
2022/09/04 10:53:28;;;;;;;3.15;0.80;;;;;;;19.01;42.51;102379.97;1690182;82;21148;-88
2022/09/04 10:56:15;;;;;;;3.58;0.57;;;;;;;18.97;42.60;102379.88;1719454;82;22692;-88
2022/09/04 10:59:01;;;;;;;1.50;0.50;;;;;;;18.92;42.70;102371.81;1714647;82;21768;-89
2022/09/04 11:01:54;;;;;;;2.52;0.42;;;;;;;18.94;42.57;102367.80;1690061;82;21079;-87
2022/09/04 11:04:58;;;;;;;0.75;0.50;;;;;;;18.90;42.71;102379.30;1628278;86;21126;-89
2022/09/04 11:08:11;;;;;;;0.98;0.70;;;;;;;18.77;42.49;102372.42;1595544;86;21083;-90
2022/09/04 11:11:15;;;;;;;1.87;0.72;;;;;;;18.71;42.59;102368.28;1626661;86;21813;-88
2022/09/04 11:14:27;;;;;;;1.32;0.90;;;;;;;18.70;42.68;102384.29;1647492;86;21966;-88
2022/09/04 11:17:14;;;;;;;1.07;1.00;;;;;;;18.64;42.63;102379.30;1640499;86;21153;-88
2022/09/04 11:20:27;;;;;;;2.20;0.80;;;;;;;18.57;42.77;102374.72;1620902;87;21454;-88
2022/09/04 11:23:39;;;;;;;0.62;0.55;;;;;;;18.59;43.01;102372.98;1637104;86;21621;-89
2022/09/04 11:26:46;;;;;;;0.70;0.68;;;;;;;18.63;43.24;102367.27;1578292;89;21833;-87
2022/09/04 11:29:47;;;;;;;0.75;0.65;;;;;;;18.75;43.36;102386.58;1551106;88;21570;-88
2022/09/04 11:32:32;;;;;;;1.00;0.72;;;;;;;18.76;43.26;102376.38;1647590;85;21196;-87
2022/09/04 11:35:25;;;;;;;2.50;1.15;;;;;;;18.72;43.06;102369.20;1644993;85;21650;-87
2022/09/04 11:38:42;;;;;;;1.62;0.80;;;;;;;18.64;43.06;102374.41;1654613;85;21181;-86
2022/09/04 11:41:49;;;;;;;2.40;0.85;;;;;;;18.57;43.28;102371.17;1655342;86;21852;-86
2022/09/04 11:44:39;;;;;;;1.35;0.82;;;;;;;18.56;43.28;102370.28;1649866;85;21097;-86
2022/09/04 11:47:35;;;;;;;1.52;0.90;;;;;;;18.57;43.46;102373.39;1607613;86;21431;-85
2022/09/04 11:50:35;;;;;;;1.05;0.62;;;;;;;18.60;43.47;102372.13;1641398;86;21627;-86
2022/09/04 11:53:21;;;;;;;1.07;0.68;;;;;;;18.61;43.31;102365.02;1644716;85;21181;-88
2022/09/04 11:56:27;;;;;;;0.68;0.60;;;;;;;18.57;43.12;102377.39;1653815;85;21798;-90
2022/09/04 11:59:20;;;;;;;0.70;0.70;;;;;;;18.51;43.47;102385.73;1586258;88;21181;-85
2022/09/04 12:02:17;;;;;;;2.17;0.68;;;;;;;18.45;43.33;102377.19;1628111;86;21073;-87
2022/09/04 12:05:38;;;;;;;5.53;0.80;;;;;;;18.43;43.43;102382.48;1622697;87;21219;-85
2022/09/04 12:08:20;;;;;;;1.55;0.47;;;;;;;18.41;43.32;102374.89;1639485;84;21105;-91
2022/09/04 12:11:06;;;;;;;0.78;0.50;;;;;;;18.41;43.52;102390.89;1617409;87;21884;-91
2022/09/04 12:13:54;;;;;;;0.60;0.60;;;;;;;18.41;43.59;102390.89;1637495;86;25323;-88
2022/09/04 12:16:56;;;;;;;1.92;1.12;;;;;;;18.38;43.48;102380.16;1651785;85;21114;-85
2022/09/04 12:19:43;;;;;;;;;;;;;;;18.38;43.58;102384.60;1596759;88;21080;-82
2022/09/04 12:22:41;;;;;;;4.35;2.22;;;;;;;18.39;43.37;102378.38;1632234;86;20210;-84
2022/09/04 12:25:48;;;;;;;1.35;0.82;;;;;;;18.36;43.42;102385.90;1602631;88;21962;-88
2022/09/04 12:28:56;;;;;;;1.50;0.80;;;;;;;18.37;43.39;102374.34;1625876;85;21825;-84
2022/09/04 12:32:21;;;;;;;0.95;0.70;;;;;;;18.35;43.39;102384.53;1615963;87;21236;-92
2022/09/04 12:35:45;;;;;;;2.15;1.10;;;;;;;18.34;43.38;102393.38;1633920;84;21090;-91
2022/09/04 12:39:17;;;;;;;2.50;0.83;;;;;;;18.29;43.28;102387.98;1666592;85;21827;-85
2022/09/04 12:42:11;;;;;;;1.30;0.70;;;;;;;18.24;43.43;102398.56;1662406;84;21319;-86
2022/09/04 12:44:56;;;;;;;1.62;0.65;;;;;;;18.18;43.22;102378.44;1702613;83;21091;-85
2022/09/04 12:47:35;;;;;;;1.62;0.70;;;;;;;18.18;43.37;102388.20;1693902;84;21075;-87
2022/09/04 12:50:29;;;;;;;2.90;0.80;;;;;;;18.21;43.43;102381.61;1674307;83;21112;-86
2022/09/04 12:53:16;;;;;;;1.87;0.62;;;;;;;18.22;43.19;102387.39;1711796;83;21078;-85
2022/09/04 12:55:59;;;;;;;0.60;0.60;;;;;;;18.25;43.39;102392.80;1693874;83;21361;-86
2022/09/04 12:59:02;;;;;;;1.02;0.68;;;;;;;18.27;43.16;102387.05;1693625;83;21125;-87
2022/09/04 13:01:58;;;;;;;1.50;0.90;;;;;;;18.28;43.26;102402.61;1728494;81;21042;-86
2022/09/04 13:04:45;;;;;;;2.25;0.75;;;;;;;18.24;43.17;102396.31;1721472;81;21616;-90
2022/09/04 13:07:32;;;;;;;3.20;0.70;;;;;;;18.20;43.08;102403.34;1751124;81;21281;-91
2022/09/04 13:10:55;;;;;;;3.70;2.90;;;;;;;18.15;43.22;102393.05;1750679;81;21801;-90
2022/09/04 13:13:40;;;;;;;4.58;3.40;;;;;;;18.20;43.20;102390.02;1724395;82;21056;-91
2022/09/04 13:16:37;;;;;;;3.52;2.55;;;;;;;18.23;43.18;102399.86;1732455;82;21072;-90
2022/09/04 13:19:18;;;;;;;1.77;0.88;;;;;;;18.25;43.25;102394.12;1752453;81;21097;-91
2022/09/04 13:22:38;;;;;;;1.47;0.70;;;;;;;18.24;43.20;102385.65;1757649;81;21094;-90
2022/09/04 13:25:47;;;;;;;1.10;0.70;;;;;;;18.22;43.04;102386.95;1698662;84;21736;-90
2022/09/04 13:28:45;;;;;;;0.55;0.55;;;;;;;18.23;42.97;102402.53;1697087;84;21053;-90
2022/09/04 13:31:35;;;;;;;1.05;0.80;;;;;;;18.21;42.83;102395.83;1697156;84;21187;-91
2022/09/04 13:34:32;;;;;;;0.93;0.75;;;;;;;18.22;43.06;102403.38;1716235;81;21082;-89
2022/09/04 13:37:28;;;;;;;3.72;1.00;;;;;;;18.21;43.27;102397.61;1725198;81;21080;-88
2022/09/04 13:40:14;;;;;;;2.08;1.10;;;;;;;18.20;43.59;102398.45;1740470;81;22493;-91
2022/09/04 13:43:19;;;;;;;3.17;1.05;;;;;;;18.23;43.63;102409.19;1738305;81;21906;-91